sensor_id;sensor_type;location;lat;lon;timestamp;P1;durP1;ratioP1;P2;durP2;ratioP2
11761;SDS011;5938;47.098;15.474;2023-06-10T00:02:37;10.40;;;9.37;;
11761;SDS011;5938;47.098;15.474;2023-06-10T00:06:42;11.77;;;9.27;;
11761;SDS011;5938;47.098;15.474;2023-06-10T00:10:45;14.33;;;10.50;;
11761;SDS011;5938;47.098;15.474;2023-06-10T00:14:49;11.30;;;9.93;;
11761;SDS011;5938;47.098;15.474;2023-06-10T00:18:55;13.17;;;11.87;;
11761;SDS011;5938;47.098;15.474;2023-06-10T00:23:03;12.43;;;11.10;;
11761;SDS011;5938;47.098;15.474;2023-06-10T00:27:09;17.87;;;11.33;;
11761;SDS011;5938;47.098;15.474;2023-06-10T00:31:13;13.13;;;11.07;;
11761;SDS011;5938;47.098;15.474;2023-06-10T00:35:16;13.80;;;11.10;;
11761;SDS011;5938;47.098;15.474;2023-06-10T00:39:21;12.80;;;11.47;;
11761;SDS011;5938;47.098;15.474;2023-06-10T00:43:25;12.77;;;10.80;;
11761;SDS011;5938;47.098;15.474;2023-06-10T00:47:28;13.13;;;10.10;;
11761;SDS011;5938;47.098;15.474;2023-06-10T00:51:32;16.50;;;11.30;;
11761;SDS011;5938;47.098;15.474;2023-06-10T00:55:37;11.33;;;9.17;;
11761;SDS011;5938;47.098;15.474;2023-06-10T00:59:41;12.67;;;10.60;;
11761;SDS011;5938;47.098;15.474;2023-06-10T01:03:49;11.13;;;10.03;;
11761;SDS011;5938;47.098;15.474;2023-06-10T01:07:56;9.27;;;8.37;;
11761;SDS011;5938;47.098;15.474;2023-06-10T01:12:08;10.50;;;9.10;;
11761;SDS011;5938;47.098;15.474;2023-06-10T01:16:15;10.27;;;9.07;;
11761;SDS011;5938;47.098;15.474;2023-06-10T01:20:18;10.40;;;8.50;;
11761;SDS011;5938;47.098;15.474;2023-06-10T01:24:23;9.67;;;8.77;;
11761;SDS011;5938;47.098;15.474;2023-06-10T01:28:27;9.73;;;8.83;;
11761;SDS011;5938;47.098;15.474;2023-06-10T01:32:37;8.63;;;7.83;;
11761;SDS011;5938;47.098;15.474;2023-06-10T01:36:47;19.30;;;9.30;;
11761;SDS011;5938;47.098;15.474;2023-06-10T01:40:53;9.87;;;8.10;;
11761;SDS011;5938;47.098;15.474;2023-06-10T01:44:59;11.30;;;10.30;;
11761;SDS011;5938;47.098;15.474;2023-06-10T01:49:02;9.20;;;8.20;;
11761;SDS011;5938;47.098;15.474;2023-06-10T01:53:06;10.47;;;8.47;;
11761;SDS011;5938;47.098;15.474;2023-06-10T01:57:11;9.33;;;8.30;;
11761;SDS011;5938;47.098;15.474;2023-06-10T02:01:20;20.23;;;9.73;;
11761;SDS011;5938;47.098;15.474;2023-06-10T02:05:23;9.43;;;8.53;;
11761;SDS011;5938;47.098;15.474;2023-06-10T02:09:27;8.90;;;8.00;;
11761;SDS011;5938;47.098;15.474;2023-06-10T02:13:31;9.30;;;8.40;;
11761;SDS011;5938;47.098;15.474;2023-06-10T02:17:35;12.90;;;8.80;;
11761;SDS011;5938;47.098;15.474;2023-06-10T02:21:39;8.53;;;7.73;;
11761;SDS011;5938;47.098;15.474;2023-06-10T02:25:43;10.57;;;8.30;;
11761;SDS011;5938;47.098;15.474;2023-06-10T02:29:47;9.20;;;8.30;;
11761;SDS011;5938;47.098;15.474;2023-06-10T02:33:52;9.33;;;8.20;;
11761;SDS011;5938;47.098;15.474;2023-06-10T02:37:55;10.03;;;8.93;;
11761;SDS011;5938;47.098;15.474;2023-06-10T02:41:59;11.67;;;8.80;;
11761;SDS011;5938;47.098;15.474;2023-06-10T02:46:03;19.57;;;9.83;;
11761;SDS011;5938;47.098;15.474;2023-06-10T02:50:07;10.10;;;8.40;;
11761;SDS011;5938;47.098;15.474;2023-06-10T02:54:11;9.83;;;8.03;;
11761;SDS011;5938;47.098;15.474;2023-06-10T02:58:14;9.03;;;7.87;;
11761;SDS011;5938;47.098;15.474;2023-06-10T03:02:19;10.17;;;9.13;;
11761;SDS011;5938;47.098;15.474;2023-06-10T03:06:23;9.80;;;8.90;;
11761;SDS011;5938;47.098;15.474;2023-06-10T03:10:27;10.53;;;9.33;;
11761;SDS011;5938;47.098;15.474;2023-06-10T03:14:31;10.73;;;9.57;;
11761;SDS011;5938;47.098;15.474;2023-06-10T03:18:37;10.23;;;8.57;;
11761;SDS011;5938;47.098;15.474;2023-06-10T03:22:41;11.87;;;10.30;;
11761;SDS011;5938;47.098;15.474;2023-06-10T03:26:44;10.80;;;9.70;;
11761;SDS011;5938;47.098;15.474;2023-06-10T03:30:47;11.20;;;10.00;;
11761;SDS011;5938;47.098;15.474;2023-06-10T03:34:53;11.50;;;10.30;;
11761;SDS011;5938;47.098;15.474;2023-06-10T03:38:58;12.03;;;9.23;;
11761;SDS011;5938;47.098;15.474;2023-06-10T03:43:02;12.40;;;9.37;;
11761;SDS011;5938;47.098;15.474;2023-06-10T03:47:06;11.23;;;9.93;;
11761;SDS011;5938;47.098;15.474;2023-06-10T03:51:11;13.93;;;9.37;;
11761;SDS011;5938;47.098;15.474;2023-06-10T03:55:14;12.00;;;10.60;;
11761;SDS011;5938;47.098;15.474;2023-06-10T03:59:18;10.37;;;9.37;;
11761;SDS011;5938;47.098;15.474;2023-06-10T04:03:21;11.17;;;10.17;;
11761;SDS011;5938;47.098;15.474;2023-06-10T04:07:27;14.80;;;9.97;;
11761;SDS011;5938;47.098;15.474;2023-06-10T04:11:32;11.93;;;9.87;;
11761;SDS011;5938;47.098;15.474;2023-06-10T04:15:36;11.97;;;9.20;;
11761;SDS011;5938;47.098;15.474;2023-06-10T04:19:39;11.53;;;9.80;;
11761;SDS011;5938;47.098;15.474;2023-06-10T04:23:44;11.23;;;9.37;;
11761;SDS011;5938;47.098;15.474;2023-06-10T04:27:48;12.13;;;9.67;;
11761;SDS011;5938;47.098;15.474;2023-06-10T04:31:51;10.00;;;9.00;;
11761;SDS011;5938;47.098;15.474;2023-06-10T04:36:00;10.40;;;9.37;;
11761;SDS011;5938;47.098;15.474;2023-06-10T04:40:06;9.20;;;8.47;;
11761;SDS011;5938;47.098;15.474;2023-06-10T04:44:10;11.17;;;9.50;;
11761;SDS011;5938;47.098;15.474;2023-06-10T04:48:13;12.30;;;10.97;;
11761;SDS011;5938;47.098;15.474;2023-06-10T04:52:17;10.23;;;9.17;;
11761;SDS011;5938;47.098;15.474;2023-06-10T04:56:22;17.70;;;9.50;;
11761;SDS011;5938;47.098;15.474;2023-06-10T05:00:26;11.23;;;10.10;;
11761;SDS011;5938;47.098;15.474;2023-06-10T05:04:29;12.00;;;10.73;;
11761;SDS011;5938;47.098;15.474;2023-06-10T05:08:33;10.77;;;9.87;;
11761;SDS011;5938;47.098;15.474;2023-06-10T05:12:37;11.00;;;9.90;;
11761;SDS011;5938;47.098;15.474;2023-06-10T05:16:41;10.33;;;9.10;;
11761;SDS011;5938;47.098;15.474;2023-06-10T05:20:45;11.50;;;10.50;;
11761;SDS011;5938;47.098;15.474;2023-06-10T05:24:49;11.43;;;10.33;;
11761;SDS011;5938;47.098;15.474;2023-06-10T05:28:56;10.90;;;9.80;;
11761;SDS011;5938;47.098;15.474;2023-06-10T05:33:00;11.10;;;10.10;;
11761;SDS011;5938;47.098;15.474;2023-06-10T05:37:04;11.47;;;10.37;;
11761;SDS011;5938;47.098;15.474;2023-06-10T05:41:07;11.63;;;10.53;;
11761;SDS011;5938;47.098;15.474;2023-06-10T05:45:12;9.83;;;9.03;;
11761;SDS011;5938;47.098;15.474;2023-06-10T05:49:16;10.37;;;9.33;;
11761;SDS011;5938;47.098;15.474;2023-06-10T05:53:24;9.00;;;8.20;;
11761;SDS011;5938;47.098;15.474;2023-06-10T05:57:27;9.67;;;8.70;;
11761;SDS011;5938;47.098;15.474;2023-06-10T06:01:32;10.00;;;9.00;;
11761;SDS011;5938;47.098;15.474;2023-06-10T06:05:36;8.53;;;7.80;;
11761;SDS011;5938;47.098;15.474;2023-06-10T06:09:40;8.17;;;7.47;;
11761;SDS011;5938;47.098;15.474;2023-06-10T06:13:44;10.33;;;9.23;;
11761;SDS011;5938;47.098;15.474;2023-06-10T06:17:55;9.73;;;8.90;;
11761;SDS011;5938;47.098;15.474;2023-06-10T06:21:58;9.27;;;8.53;;
11761;SDS011;5938;47.098;15.474;2023-06-10T06:26:01;8.80;;;8.00;;
11761;SDS011;5938;47.098;15.474;2023-06-10T06:30:08;8.63;;;7.73;;
11761;SDS011;5938;47.098;15.474;2023-06-10T06:34:14;8.73;;;7.93;;
11761;SDS011;5938;47.098;15.474;2023-06-10T06:38:17;9.20;;;8.50;;
11761;SDS011;5938;47.098;15.474;2023-06-10T06:42:20;11.07;;;9.97;;
11761;SDS011;5938;47.098;15.474;2023-06-10T06:46:24;10.47;;;9.47;;
11761;SDS011;5938;47.098;15.474;2023-06-10T06:50:30;9.73;;;8.70;;
11761;SDS011;5938;47.098;15.474;2023-06-10T06:54:34;9.30;;;8.53;;
11761;SDS011;5938;47.098;15.474;2023-06-10T06:58:38;9.40;;;8.50;;
11761;SDS011;5938;47.098;15.474;2023-06-10T07:02:42;10.13;;;9.17;;
11761;SDS011;5938;47.098;15.474;2023-06-10T07:06:47;10.73;;;9.83;;
11761;SDS011;5938;47.098;15.474;2023-06-10T07:10:50;9.43;;;8.63;;
11761;SDS011;5938;47.098;15.474;2023-06-10T07:14:53;9.90;;;8.90;;
11761;SDS011;5938;47.098;15.474;2023-06-10T07:18:56;9.07;;;8.27;;
11761;SDS011;5938;47.098;15.474;2023-06-10T07:23:06;10.70;;;9.67;;
11761;SDS011;5938;47.098;15.474;2023-06-10T07:27:09;7.93;;;7.23;;
11761;SDS011;5938;47.098;15.474;2023-06-10T07:31:13;9.10;;;8.40;;
11761;SDS011;5938;47.098;15.474;2023-06-10T07:35:16;7.17;;;6.40;;
11761;SDS011;5938;47.098;15.474;2023-06-10T07:39:21;8.50;;;7.70;;
11761;SDS011;5938;47.098;15.474;2023-06-10T07:43:24;7.30;;;6.70;;
11761;SDS011;5938;47.098;15.474;2023-06-10T07:47:28;7.33;;;6.80;;
11761;SDS011;5938;47.098;15.474;2023-06-10T07:51:31;6.90;;;6.40;;
11761;SDS011;5938;47.098;15.474;2023-06-10T07:55:36;7.70;;;7.10;;
11761;SDS011;5938;47.098;15.474;2023-06-10T07:59:39;7.43;;;6.73;;
11761;SDS011;5938;47.098;15.474;2023-06-10T08:03:43;6.20;;;5.77;;
11761;SDS011;5938;47.098;15.474;2023-06-10T08:07:46;7.00;;;6.40;;
11761;SDS011;5938;47.098;15.474;2023-06-10T08:11:51;6.00;;;5.50;;
11761;SDS011;5938;47.098;15.474;2023-06-10T08:16:02;7.33;;;6.63;;
11761;SDS011;5938;47.098;15.474;2023-06-10T08:20:16;6.73;;;6.20;;
11761;SDS011;5938;47.098;15.474;2023-06-10T08:24:20;8.23;;;7.43;;
11761;SDS011;5938;47.098;15.474;2023-06-10T08:32:32;9.43;;;7.10;;
11761;SDS011;5938;47.098;15.474;2023-06-10T08:36:35;7.97;;;7.27;;
11761;SDS011;5938;47.098;15.474;2023-06-10T08:40:44;9.00;;;8.20;;
11761;SDS011;5938;47.098;15.474;2023-06-10T08:44:49;7.60;;;7.00;;
11761;SDS011;5938;47.098;15.474;2023-06-10T08:48:57;7.30;;;6.73;;
11761;SDS011;5938;47.098;15.474;2023-06-10T08:53:10;7.73;;;6.83;;
11761;SDS011;5938;47.098;15.474;2023-06-10T08:57:27;8.70;;;8.00;;
11761;SDS011;5938;47.098;15.474;2023-06-10T09:01:33;8.00;;;7.40;;
11761;SDS011;5938;47.098;15.474;2023-06-10T09:05:38;8.00;;;7.30;;
11761;SDS011;5938;47.098;15.474;2023-06-10T09:09:42;8.53;;;7.73;;
11761;SDS011;5938;47.098;15.474;2023-06-10T09:13:46;9.23;;;8.10;;
11761;SDS011;5938;47.098;15.474;2023-06-10T09:17:51;8.47;;;7.67;;
11761;SDS011;5938;47.098;15.474;2023-06-10T09:21:55;7.67;;;7.07;;
11761;SDS011;5938;47.098;15.474;2023-06-10T09:25:58;8.03;;;7.37;;
11761;SDS011;5938;47.098;15.474;2023-06-10T09:30:02;8.07;;;7.47;;
11761;SDS011;5938;47.098;15.474;2023-06-10T09:34:11;6.57;;;5.93;;
11761;SDS011;5938;47.098;15.474;2023-06-10T09:38:18;8.77;;;8.07;;
11761;SDS011;5938;47.098;15.474;2023-06-10T09:42:23;7.10;;;6.60;;
11761;SDS011;5938;47.098;15.474;2023-06-10T09:46:30;8.40;;;7.70;;
11761;SDS011;5938;47.098;15.474;2023-06-10T09:50:36;7.73;;;7.13;;
11761;SDS011;5938;47.098;15.474;2023-06-10T09:54:45;8.00;;;7.30;;
11761;SDS011;5938;47.098;15.474;2023-06-10T09:58:49;8.07;;;7.47;;
11761;SDS011;5938;47.098;15.474;2023-06-10T10:02:56;8.50;;;7.70;;
11761;SDS011;5938;47.098;15.474;2023-06-10T10:07:02;8.27;;;7.57;;
11761;SDS011;5938;47.098;15.474;2023-06-10T10:11:06;8.50;;;7.80;;
11761;SDS011;5938;47.098;15.474;2023-06-10T10:15:10;9.03;;;8.33;;
11761;SDS011;5938;47.098;15.474;2023-06-10T10:19:15;10.17;;;9.13;;
11761;SDS011;5938;47.098;15.474;2023-06-10T10:23:26;9.33;;;8.63;;
11761;SDS011;5938;47.098;15.474;2023-06-10T10:27:39;8.13;;;7.53;;
11761;SDS011;5938;47.098;15.474;2023-06-10T10:35:59;7.70;;;7.10;;
11761;SDS011;5938;47.098;15.474;2023-06-10T10:44:55;8.27;;;7.47;;
11761;SDS011;5938;47.098;15.474;2023-06-10T10:49:04;7.83;;;7.10;;
11761;SDS011;5938;47.098;15.474;2023-06-10T11:26:15;7.57;;;6.97;;
11761;SDS011;5938;47.098;15.474;2023-06-10T11:30:38;8.57;;;7.70;;
11761;SDS011;5938;47.098;15.474;2023-06-10T11:34:41;7.13;;;6.63;;
11761;SDS011;5938;47.098;15.474;2023-06-10T11:38:45;8.50;;;7.70;;
11761;SDS011;5938;47.098;15.474;2023-06-10T11:42:50;7.73;;;7.00;;
11761;SDS011;5938;47.098;15.474;2023-06-10T11:46:55;7.80;;;6.73;;
11761;SDS011;5938;47.098;15.474;2023-06-10T11:51:06;8.03;;;7.43;;
11761;SDS011;5938;47.098;15.474;2023-06-10T11:55:14;6.80;;;6.30;;
11761;SDS011;5938;47.098;15.474;2023-06-10T11:59:22;8.00;;;7.40;;
11761;SDS011;5938;47.098;15.474;2023-06-10T12:03:35;6.13;;;5.73;;
11761;SDS011;5938;47.098;15.474;2023-06-10T12:07:40;6.17;;;5.67;;
11761;SDS011;5938;47.098;15.474;2023-06-10T12:11:48;6.10;;;5.70;;
11761;SDS011;5938;47.098;15.474;2023-06-10T12:15:54;6.27;;;5.77;;
11761;SDS011;5938;47.098;15.474;2023-06-10T12:24:29;6.17;;;5.73;;
11761;SDS011;5938;47.098;15.474;2023-06-10T12:28:33;6.40;;;5.97;;
11761;SDS011;5938;47.098;15.474;2023-06-10T12:33:08;6.60;;;6.00;;
11761;SDS011;5938;47.098;15.474;2023-06-10T12:37:19;6.80;;;6.30;;
11761;SDS011;5938;47.098;15.474;2023-06-10T12:41:30;8.27;;;7.57;;
11761;SDS011;5938;47.098;15.474;2023-06-10T12:45:36;8.10;;;7.50;;
11761;SDS011;5938;47.098;15.474;2023-06-10T12:49:42;8.07;;;7.40;;
11761;SDS011;5938;47.098;15.474;2023-06-10T12:53:54;9.43;;;8.57;;
11761;SDS011;5938;47.098;15.474;2023-06-10T12:57:58;8.00;;;7.30;;
11761;SDS011;5938;47.098;15.474;2023-06-10T13:02:08;8.20;;;7.57;;
11761;SDS011;5938;47.098;15.474;2023-06-10T13:06:13;7.97;;;7.37;;
11761;SDS011;5938;47.098;15.474;2023-06-10T13:10:17;8.83;;;8.13;;
11761;SDS011;5938;47.098;15.474;2023-06-10T13:14:25;9.93;;;7.17;;
11761;SDS011;5938;47.098;15.474;2023-06-10T13:18:30;7.37;;;6.77;;
11761;SDS011;5938;47.098;15.474;2023-06-10T13:22:39;6.93;;;6.10;;
11761;SDS011;5938;47.098;15.474;2023-06-10T13:26:44;6.10;;;5.60;;
11761;SDS011;5938;47.098;15.474;2023-06-10T13:30:47;6.10;;;5.50;;
11761;SDS011;5938;47.098;15.474;2023-06-10T13:34:51;6.30;;;5.80;;
11761;SDS011;5938;47.098;15.474;2023-06-10T13:38:56;5.70;;;5.30;;
11761;SDS011;5938;47.098;15.474;2023-06-10T13:43:00;6.23;;;5.83;;
11761;SDS011;5938;47.098;15.474;2023-06-10T13:47:04;7.20;;;6.60;;
11761;SDS011;5938;47.098;15.474;2023-06-10T13:51:08;7.23;;;6.57;;
11761;SDS011;5938;47.098;15.474;2023-06-10T13:55:14;20.30;;;13.67;;
11761;SDS011;5938;47.098;15.474;2023-06-10T13:59:18;10.03;;;9.13;;
11761;SDS011;5938;47.098;15.474;2023-06-10T14:03:22;10.80;;;9.60;;
11761;SDS011;5938;47.098;15.474;2023-06-10T14:07:26;10.47;;;9.57;;
11761;SDS011;5938;47.098;15.474;2023-06-10T14:11:32;10.17;;;9.17;;
11761;SDS011;5938;47.098;15.474;2023-06-10T14:15:35;9.77;;;8.87;;
11761;SDS011;5938;47.098;15.474;2023-06-10T14:19:38;9.73;;;8.93;;
11761;SDS011;5938;47.098;15.474;2023-06-10T14:23:48;10.90;;;9.80;;
11761;SDS011;5938;47.098;15.474;2023-06-10T14:27:54;11.00;;;9.30;;
11761;SDS011;5938;47.098;15.474;2023-06-10T14:31:59;10.33;;;9.40;;
11761;SDS011;5938;47.098;15.474;2023-06-10T14:36:06;10.13;;;9.30;;
11761;SDS011;5938;47.098;15.474;2023-06-10T14:40:09;9.67;;;8.67;;
11761;SDS011;5938;47.098;15.474;2023-06-10T14:44:14;10.27;;;9.27;;
11761;SDS011;5938;47.098;15.474;2023-06-10T14:48:17;13.37;;;12.00;;
11761;SDS011;5938;47.098;15.474;2023-06-10T14:52:21;11.53;;;10.43;;
11761;SDS011;5938;47.098;15.474;2023-06-10T14:56:24;12.53;;;10.90;;
11761;SDS011;5938;47.098;15.474;2023-06-10T15:00:29;11.27;;;10.07;;
11761;SDS011;5938;47.098;15.474;2023-06-10T15:04:32;10.93;;;9.93;;
11761;SDS011;5938;47.098;15.474;2023-06-10T15:08:36;10.07;;;9.17;;
11761;SDS011;5938;47.098;15.474;2023-06-10T15:12:40;10.60;;;9.60;;
11761;SDS011;5938;47.098;15.474;2023-06-10T15:16:44;9.67;;;8.77;;
11761;SDS011;5938;47.098;15.474;2023-06-10T15:20:48;12.83;;;11.30;;
11761;SDS011;5938;47.098;15.474;2023-06-10T15:24:51;10.90;;;10.00;;
11761;SDS011;5938;47.098;15.474;2023-06-10T15:28:57;11.27;;;9.93;;
11761;SDS011;5938;47.098;15.474;2023-06-10T15:33:07;14.23;;;10.03;;
11761;SDS011;5938;47.098;15.474;2023-06-10T15:37:10;11.63;;;10.53;;
11761;SDS011;5938;47.098;15.474;2023-06-10T15:41:14;11.90;;;10.80;;
11761;SDS011;5938;47.098;15.474;2023-06-10T15:45:24;10.97;;;9.97;;
11761;SDS011;5938;47.098;15.474;2023-06-10T15:49:37;9.57;;;8.67;;
11761;SDS011;5938;47.098;15.474;2023-06-10T15:53:42;11.07;;;9.97;;
11761;SDS011;5938;47.098;15.474;2023-06-10T15:57:47;11.07;;;10.07;;
11761;SDS011;5938;47.098;15.474;2023-06-10T16:01:51;9.83;;;9.03;;
11761;SDS011;5938;47.098;15.474;2023-06-10T16:05:57;10.57;;;9.50;;
11761;SDS011;5938;47.098;15.474;2023-06-10T16:10:01;9.97;;;9.17;;
11761;SDS011;5938;47.098;15.474;2023-06-10T16:14:05;10.83;;;9.90;;
11761;SDS011;5938;47.098;15.474;2023-06-10T16:18:09;12.03;;;10.93;;
11761;SDS011;5938;47.098;15.474;2023-06-10T16:22:16;9.83;;;9.03;;
11761;SDS011;5938;47.098;15.474;2023-06-10T16:26:20;10.30;;;9.30;;
11761;SDS011;5938;47.098;15.474;2023-06-10T16:30:26;10.67;;;9.67;;
11761;SDS011;5938;47.098;15.474;2023-06-10T16:34:30;9.87;;;8.87;;
11761;SDS011;5938;47.098;15.474;2023-06-10T16:38:35;10.33;;;9.33;;
11761;SDS011;5938;47.098;15.474;2023-06-10T16:42:39;9.90;;;9.07;;
11761;SDS011;5938;47.098;15.474;2023-06-10T16:46:43;10.17;;;9.27;;
11761;SDS011;5938;47.098;15.474;2023-06-10T16:50:50;10.20;;;9.30;;
11761;SDS011;5938;47.098;15.474;2023-06-10T16:54:55;9.00;;;8.30;;
11761;SDS011;5938;47.098;15.474;2023-06-10T16:59:01;9.10;;;8.37;;
11761;SDS011;5938;47.098;15.474;2023-06-10T17:03:05;9.00;;;8.07;;
11761;SDS011;5938;47.098;15.474;2023-06-10T17:07:10;10.03;;;9.03;;
11761;SDS011;5938;47.098;15.474;2023-06-10T17:11:15;10.03;;;9.23;;
11761;SDS011;5938;47.098;15.474;2023-06-10T17:15:19;11.87;;;10.07;;
11761;SDS011;5938;47.098;15.474;2023-06-10T17:19:23;10.13;;;9.13;;
11761;SDS011;5938;47.098;15.474;2023-06-10T17:23:27;10.47;;;9.50;;
11761;SDS011;5938;47.098;15.474;2023-06-10T17:27:33;11.70;;;10.60;;
11761;SDS011;5938;47.098;15.474;2023-06-10T17:31:37;10.37;;;9.47;;
11761;SDS011;5938;47.098;15.474;2023-06-10T17:35:47;11.43;;;10.17;;
11761;SDS011;5938;47.098;15.474;2023-06-10T17:53:01;13.00;;;11.70;;
11761;SDS011;5938;47.098;15.474;2023-06-10T17:57:11;11.50;;;10.30;;
11761;SDS011;5938;47.098;15.474;2023-06-10T18:01:16;11.63;;;10.43;;
11761;SDS011;5938;47.098;15.474;2023-06-10T18:05:20;13.50;;;12.40;;
11761;SDS011;5938;47.098;15.474;2023-06-10T18:09:26;12.83;;;11.63;;
11761;SDS011;5938;47.098;15.474;2023-06-10T18:13:33;12.23;;;11.13;;
11761;SDS011;5938;47.098;15.474;2023-06-10T18:17:38;11.87;;;10.77;;
11761;SDS011;5938;47.098;15.474;2023-06-10T18:21:44;10.63;;;9.73;;
11761;SDS011;5938;47.098;15.474;2023-06-10T18:25:49;14.33;;;12.83;;
11761;SDS011;5938;47.098;15.474;2023-06-10T18:29:56;15.77;;;13.60;;
11761;SDS011;5938;47.098;15.474;2023-06-10T18:34:01;13.57;;;12.27;;
11761;SDS011;5938;47.098;15.474;2023-06-10T18:38:10;13.53;;;12.23;;
11761;SDS011;5938;47.098;15.474;2023-06-10T18:42:18;14.67;;;13.07;;
11761;SDS011;5938;47.098;15.474;2023-06-10T18:46:22;14.37;;;12.33;;
11761;SDS011;5938;47.098;15.474;2023-06-10T18:50:27;16.40;;;13.07;;
11761;SDS011;5938;47.098;15.474;2023-06-10T18:54:49;13.97;;;12.33;;
11761;SDS011;5938;47.098;15.474;2023-06-10T18:59:02;15.30;;;12.70;;
11761;SDS011;5938;47.098;15.474;2023-06-10T19:03:07;13.40;;;12.07;;
11761;SDS011;5938;47.098;15.474;2023-06-10T19:07:14;14.03;;;12.63;;
11761;SDS011;5938;47.098;15.474;2023-06-10T19:11:25;15.97;;;13.97;;
11761;SDS011;5938;47.098;15.474;2023-06-10T19:15:31;13.20;;;11.90;;
11761;SDS011;5938;47.098;15.474;2023-06-10T19:19:35;12.50;;;11.20;;
11761;SDS011;5938;47.098;15.474;2023-06-10T19:23:40;14.93;;;11.10;;
11761;SDS011;5938;47.098;15.474;2023-06-10T19:27:44;14.83;;;12.13;;
11761;SDS011;5938;47.098;15.474;2023-06-10T19:31:50;12.33;;;11.13;;
11761;SDS011;5938;47.098;15.474;2023-06-10T19:35:58;14.00;;;12.47;;
11761;SDS011;5938;47.098;15.474;2023-06-10T19:40:03;14.50;;;11.10;;
11761;SDS011;5938;47.098;15.474;2023-06-10T19:44:10;15.80;;;12.00;;
11761;SDS011;5938;47.098;15.474;2023-06-10T19:48:20;13.13;;;11.73;;
11761;SDS011;5938;47.098;15.474;2023-06-10T19:52:25;13.60;;;12.20;;
11761;SDS011;5938;47.098;15.474;2023-06-10T19:56:35;15.30;;;11.93;;
11761;SDS011;5938;47.098;15.474;2023-06-10T20:00:41;12.80;;;11.37;;
11761;SDS011;5938;47.098;15.474;2023-06-10T20:04:49;11.70;;;10.50;;
11761;SDS011;5938;47.098;15.474;2023-06-10T20:08:56;12.60;;;11.30;;
11761;SDS011;5938;47.098;15.474;2023-06-10T20:13:00;13.17;;;11.60;;
11761;SDS011;5938;47.098;15.474;2023-06-10T20:17:05;13.07;;;11.57;;
11761;SDS011;5938;47.098;15.474;2023-06-10T20:21:11;12.50;;;11.20;;
11761;SDS011;5938;47.098;15.474;2023-06-10T20:25:18;14.40;;;13.00;;
11761;SDS011;5938;47.098;15.474;2023-06-10T20:29:23;13.03;;;11.73;;
11761;SDS011;5938;47.098;15.474;2023-06-10T20:33:30;13.50;;;11.03;;
11761;SDS011;5938;47.098;15.474;2023-06-10T20:37:35;13.67;;;12.30;;
11761;SDS011;5938;47.098;15.474;2023-06-10T20:41:40;14.60;;;10.93;;
11761;SDS011;5938;47.098;15.474;2023-06-10T20:45:45;15.10;;;13.50;;
11761;SDS011;5938;47.098;15.474;2023-06-10T20:49:51;12.63;;;11.33;;
11761;SDS011;5938;47.098;15.474;2023-06-10T20:53:56;31.93;;;12.97;;
11761;SDS011;5938;47.098;15.474;2023-06-10T20:58:01;15.87;;;13.37;;
11761;SDS011;5938;47.098;15.474;2023-06-10T21:02:06;13.43;;;12.03;;
11761;SDS011;5938;47.098;15.474;2023-06-10T21:06:10;13.07;;;11.70;;
11761;SDS011;5938;47.098;15.474;2023-06-10T21:10:16;15.40;;;13.60;;
11761;SDS011;5938;47.098;15.474;2023-06-10T21:14:20;18.97;;;15.53;;
11761;SDS011;5938;47.098;15.474;2023-06-10T21:18:24;15.03;;;13.47;;
11761;SDS011;5938;47.098;15.474;2023-06-10T21:22:31;14.20;;;12.70;;
11761;SDS011;5938;47.098;15.474;2023-06-10T21:26:42;16.03;;;13.20;;
11761;SDS011;5938;47.098;15.474;2023-06-10T21:30:50;16.77;;;13.53;;
11761;SDS011;5938;47.098;15.474;2023-06-10T21:35:03;16.37;;;14.67;;
11761;SDS011;5938;47.098;15.474;2023-06-10T21:39:13;17.80;;;14.77;;
11761;SDS011;5938;47.098;15.474;2023-06-10T21:43:32;17.63;;;15.87;;
11761;SDS011;5938;47.098;15.474;2023-06-10T21:47:39;16.47;;;14.63;;
11761;SDS011;5938;47.098;15.474;2023-06-10T21:51:43;15.57;;;13.30;;
11761;SDS011;5938;47.098;15.474;2023-06-10T21:55:48;19.70;;;13.87;;
11761;SDS011;5938;47.098;15.474;2023-06-10T21:59:53;15.40;;;13.90;;
11761;SDS011;5938;47.098;15.474;2023-06-10T22:03:57;14.23;;;12.77;;
11761;SDS011;5938;47.098;15.474;2023-06-10T22:08:01;13.00;;;11.40;;
11761;SDS011;5938;47.098;15.474;2023-06-10T22:12:05;14.00;;;12.50;;
11761;SDS011;5938;47.098;15.474;2023-06-10T22:16:11;13.63;;;12.10;;
11761;SDS011;5938;47.098;15.474;2023-06-10T22:20:15;12.73;;;11.40;;
11761;SDS011;5938;47.098;15.474;2023-06-10T22:24:18;13.03;;;11.30;;
11761;SDS011;5938;47.098;15.474;2023-06-10T22:28:22;13.27;;;11.70;;
11761;SDS011;5938;47.098;15.474;2023-06-10T22:32:27;13.50;;;11.10;;
11761;SDS011;5938;47.098;15.474;2023-06-10T22:36:31;15.00;;;13.40;;
11761;SDS011;5938;47.098;15.474;2023-06-10T22:40:34;13.60;;;11.23;;
11761;SDS011;5938;47.098;15.474;2023-06-10T22:44:38;12.90;;;11.60;;
11761;SDS011;5938;47.098;15.474;2023-06-10T22:48:43;13.83;;;12.30;;
11761;SDS011;5938;47.098;15.474;2023-06-10T22:52:47;13.17;;;11.87;;
11761;SDS011;5938;47.098;15.474;2023-06-10T22:56:51;13.63;;;12.03;;
11761;SDS011;5938;47.098;15.474;2023-06-10T23:00:55;14.87;;;13.37;;
11761;SDS011;5938;47.098;15.474;2023-06-10T23:05:00;14.03;;;11.13;;
11761;SDS011;5938;47.098;15.474;2023-06-10T23:09:04;12.47;;;11.27;;
11761;SDS011;5938;47.098;15.474;2023-06-10T23:13:07;13.03;;;11.70;;
11761;SDS011;5938;47.098;15.474;2023-06-10T23:17:11;15.10;;;13.43;;
11761;SDS011;5938;47.098;15.474;2023-06-10T23:21:17;17.70;;;13.10;;
11761;SDS011;5938;47.098;15.474;2023-06-10T23:25:24;13.37;;;12.07;;
11761;SDS011;5938;47.098;15.474;2023-06-10T23:29:28;14.90;;;13.40;;
11761;SDS011;5938;47.098;15.474;2023-06-10T23:33:32;14.37;;;12.80;;
11761;SDS011;5938;47.098;15.474;2023-06-10T23:37:37;14.73;;;12.77;;
11761;SDS011;5938;47.098;15.474;2023-06-10T23:41:41;22.20;;;14.27;;
11761;SDS011;5938;47.098;15.474;2023-06-10T23:45:46;16.30;;;13.30;;
11761;SDS011;5938;47.098;15.474;2023-06-10T23:49:49;18.20;;;13.33;;
11761;SDS011;5938;47.098;15.474;2023-06-10T23:53:54;15.30;;;13.70;;
11761;SDS011;5938;47.098;15.474;2023-06-10T23:57:58;14.00;;;12.47;;
